Terminal Aerodrome Forecast
Issued by NWS

Home | Current Version | Previous Version | Text Only | Print | Product List | Glossary On
Versions: 1 2 3 4 5 6 7 8 9 10 11 12 13 14 15 16 17 18 19 20 21 22 23 24 25 26 27 28
454
FTUS45 KGJT 231146
TAFMTJ
TAF
KMTJ 231146Z 2312/2412 20014G20KT P6SM VCSH OVC090
     FM231400 20010G18KT P6SM -SHRA OVC080
     FM231800 24012G23KT P6SM -SHRA VCTS OVC070CB
      TEMPO 2320/2324 VRB12G25KT 5SM -TSRA OVC050CB
     FM240000 29010KT 4SM -SHRA OVC040
     FM240700 24010G19KT 3SM -RASN OVC020=

USA.gov is the U.S. government's official web portal to all federal, state and local government web resources and services.